createdAt,value
2023-01-28T00:01:16.284Z,382.65
2023-01-28T00:03:43.846Z,377.02
2023-01-28T00:06:12.968Z,381.92
2023-01-28T00:08:40.644Z,372.90
2023-01-28T00:11:08.195Z,295.80
2023-01-28T00:13:35.591Z,282.00
2023-01-28T00:16:04.981Z,365.02
2023-01-28T00:18:33.270Z,374.40
2023-01-28T00:21:04.946Z,388.33
2023-01-28T00:23:33.778Z,292.92
2023-01-28T00:26:01.636Z,369.80
2023-01-28T00:28:28.832Z,280.40
2023-01-28T00:30:56.076Z,389.80
2023-01-28T00:33:23.573Z,291.17
2023-01-28T00:36:01.089Z,289.20
2023-01-28T00:38:28.934Z,379.23
2023-01-28T00:40:56.472Z,284.55
2023-01-28T00:43:23.654Z,280.25
2023-01-28T00:45:50.900Z,386.02
2023-01-28T00:48:18.076Z,286.88
2023-01-28T00:50:45.609Z,289.67
2023-01-28T00:53:12.878Z,278.85
2023-01-28T00:55:40.002Z,300.75
2023-01-28T00:58:07.140Z,384.38
2023-01-28T01:00:34.324Z,388.85
2023-01-28T01:03:01.458Z,386.50
2023-01-28T01:05:29.671Z,313.83
2023-01-28T01:07:56.890Z,298.05
2023-01-28T01:10:24.084Z,387.40
2023-01-28T01:12:51.455Z,397.77
2023-01-28T01:15:19.305Z,302.90
2023-01-28T01:17:47.931Z,313.27
2023-01-28T01:20:17.864Z,300.38
2023-01-28T01:22:45.132Z,401.10
2023-01-28T01:25:13.379Z,310.77
2023-01-28T01:27:40.740Z,311.25
2023-01-28T01:30:09.221Z,393.23
2023-01-28T01:32:36.750Z,389.50
2023-01-28T01:35:05.972Z,402.55
2023-01-28T01:37:33.142Z,308.80
2023-01-28T01:40:02.080Z,321.70
2023-01-28T01:42:29.462Z,296.10
2023-01-28T01:44:59.507Z,404.90
2023-01-28T01:47:49.938Z,314.58
2023-01-28T01:50:30.693Z,314.42
2023-01-28T01:53:01.828Z,307.05
2023-01-28T01:55:31.014Z,313.60
2023-01-28T01:57:59.318Z,325.08
2023-01-28T02:00:26.552Z,317.02
2023-01-28T02:02:54.350Z,316.30
2023-01-28T02:05:23.021Z,406.75
2023-01-28T02:07:51.652Z,413.05
2023-01-28T02:10:19.188Z,423.75
2023-01-28T02:12:48.586Z,368.20
2023-01-28T02:15:18.622Z,374.42
2023-01-28T02:17:45.911Z,291.95
2023-01-28T02:20:14.586Z,281.65
2023-01-28T02:22:41.773Z,366.10
2023-01-28T02:25:15.260Z,297.10
2023-01-28T02:27:58.479Z,381.65
2023-01-28T02:30:31.847Z,302.17
2023-01-28T02:33:01.578Z,283.77
2023-01-28T02:35:31.826Z,375.00
2023-01-28T02:38:08.770Z,379.02
2023-01-28T02:40:58.878Z,389.42
2023-01-28T02:43:33.136Z,292.30
2023-01-28T02:46:19.292Z,275.88
2023-01-28T02:48:47.078Z,387.27
2023-01-28T02:51:20.993Z,375.77
2023-01-28T02:53:56.194Z,390.13
2023-01-28T02:56:29.606Z,390.23
2023-01-28T02:59:34.153Z,378.63
2023-01-28T03:02:11.984Z,360.92
2023-01-28T03:04:42.318Z,294.23
2023-01-28T03:07:12.206Z,276.95
2023-01-28T03:09:40.071Z,370.13
2023-01-28T03:12:25.867Z,377.38
2023-01-28T03:15:31.722Z,376.58
2023-01-28T03:18:21.052Z,275.25
2023-01-28T03:21:14.154Z,273.23
2023-01-28T03:24:18.349Z,313.10
2023-01-28T03:27:10.393Z,371.05
2023-01-28T03:29:56.498Z,293.40
2023-01-28T03:32:42.833Z,297.58
2023-01-28T03:35:30.203Z,282.75
2023-01-28T03:38:00.356Z,315.15
2023-01-28T03:40:28.103Z,387.58
2023-01-28T03:42:56.825Z,303.70
2023-01-28T03:45:23.971Z,390.05
2023-01-28T03:47:51.195Z,309.15
2023-01-28T03:50:18.382Z,376.13
2023-01-28T03:52:45.576Z,363.33
2023-01-28T03:55:15.799Z,293.45
2023-01-28T03:57:44.880Z,293.75
2023-01-28T04:00:12.417Z,385.00
2023-01-28T04:02:40.315Z,377.67
2023-01-28T04:05:13.797Z,309.17
2023-01-28T04:07:41.218Z,381.33
2023-01-28T04:10:08.945Z,395.17
2023-01-28T04:12:37.898Z,386.77
2023-01-28T04:15:15.722Z,304.05
2023-01-28T04:17:47.109Z,304.50
2023-01-28T04:20:14.823Z,300.60
2023-01-28T04:22:42.053Z,308.52
2023-01-28T04:25:09.497Z,364.80
2023-01-28T04:27:36.697Z,301.33
2023-01-28T04:30:04.092Z,390.35
2023-01-28T04:32:31.280Z,377.70
2023-01-28T04:34:58.529Z,293.48
2023-01-28T04:37:25.722Z,296.90
2023-01-28T04:39:52.914Z,381.83
2023-01-28T04:42:20.128Z,286.85
2023-01-28T04:44:47.328Z,374.42
2023-01-28T04:47:14.529Z,292.92
2023-01-28T04:49:41.698Z,369.20
2023-01-28T04:52:08.957Z,289.10
2023-01-28T04:54:36.164Z,381.90
2023-01-28T04:57:03.493Z,382.88
2023-01-28T04:59:30.657Z,378.60
2023-01-28T05:01:57.845Z,299.35
2023-01-28T05:04:24.989Z,295.45
2023-01-28T05:06:52.206Z,373.33
2023-01-28T05:09:19.702Z,381.48
2023-01-28T05:11:46.951Z,298.65
2023-01-28T05:14:14.074Z,382.38
2023-01-28T05:16:41.238Z,298.40
2023-01-28T05:19:08.432Z,287.90
2023-01-28T05:21:35.658Z,377.05
2023-01-28T05:24:02.949Z,367.27
2023-01-28T05:26:30.206Z,383.42
2023-01-28T05:28:57.365Z,293.45
2023-01-28T05:31:24.543Z,376.45
2023-01-28T05:33:53.094Z,373.55
2023-01-28T05:36:20.577Z,288.08
2023-01-28T05:38:47.739Z,286.15
2023-01-28T05:41:14.864Z,374.98
2023-01-28T05:43:41.990Z,375.92
2023-01-28T05:46:09.147Z,360.00
2023-01-28T05:48:36.334Z,295.98
2023-01-28T05:51:05.229Z,298.23
2023-01-28T05:53:33.057Z,378.95
2023-01-28T05:56:00.171Z,287.48
2023-01-28T05:58:30.905Z,364.38
2023-01-28T06:00:58.235Z,372.40
2023-01-28T06:03:25.471Z,380.73
2023-01-28T06:05:52.649Z,283.95
2023-01-28T06:08:19.738Z,376.38
2023-01-28T06:10:47.579Z,378.05
2023-01-28T06:13:14.704Z,286.55
2023-01-28T06:15:41.860Z,380.10
2023-01-28T06:18:09.097Z,376.20
2023-01-28T06:20:36.253Z,380.02
2023-01-28T06:23:03.437Z,378.60
2023-01-28T06:25:30.621Z,385.33
2023-01-28T06:27:57.739Z,302.00
2023-01-28T06:30:24.916Z,296.67
2023-01-28T06:32:56.043Z,289.33
2023-01-28T06:35:23.526Z,381.20
2023-01-28T06:37:50.910Z,381.88
2023-01-28T06:40:18.330Z,316.13
2023-01-28T06:42:45.858Z,382.90
2023-01-28T06:45:13.035Z,381.75
2023-01-28T06:47:40.523Z,394.35
2023-01-28T06:50:09.253Z,295.13
2023-01-28T06:52:36.430Z,386.48
2023-01-28T06:55:03.646Z,387.85
2023-01-28T06:57:30.779Z,385.33
2023-01-28T06:59:57.949Z,371.27
2023-01-28T07:02:31.235Z,385.00
2023-01-28T07:07:25.459Z,292.48
2023-01-28T07:09:52.570Z,376.83
2023-01-28T07:12:19.738Z,379.08
2023-01-28T07:14:46.822Z,299.75
2023-01-28T07:17:14.063Z,288.40
2023-01-28T07:19:41.368Z,284.88
2023-01-28T07:22:08.586Z,378.25
2023-01-28T07:24:35.799Z,291.52
2023-01-28T07:27:04.612Z,374.42
2023-01-28T07:29:31.751Z,363.38
2023-01-28T07:31:58.972Z,376.38
2023-01-28T07:34:26.204Z,373.98
2023-01-28T07:36:53.313Z,360.50
2023-01-28T07:39:20.489Z,370.08
2023-01-28T07:41:47.674Z,373.60
2023-01-28T07:44:14.821Z,286.48
2023-01-28T07:46:42.076Z,365.25
2023-01-28T07:49:09.165Z,365.45
2023-01-28T07:51:36.373Z,288.17
2023-01-28T07:54:03.568Z,287.38
2023-01-28T07:56:32.020Z,355.30
2023-01-28T07:58:59.132Z,285.08
2023-01-28T08:01:26.840Z,354.85
2023-01-28T08:03:54.408Z,355.90
2023-01-28T08:06:21.514Z,361.75
2023-01-28T08:08:49.019Z,374.13
2023-01-28T08:11:16.202Z,283.10
2023-01-28T08:13:43.329Z,383.63
2023-01-28T08:16:10.503Z,280.50
2023-01-28T08:18:37.695Z,364.05
2023-01-28T08:21:05.222Z,292.70
2023-01-28T08:23:34.517Z,367.10
2023-01-28T08:26:01.772Z,289.63
2023-01-28T08:28:28.998Z,293.77
2023-01-28T08:30:56.242Z,373.80
2023-01-28T08:33:23.475Z,302.05
2023-01-28T08:35:50.624Z,288.60
2023-01-28T08:38:18.072Z,277.63
2023-01-28T08:40:45.287Z,280.50
2023-01-28T08:43:12.554Z,273.10
2023-01-28T08:45:42.768Z,374.90
2023-01-28T08:48:12.809Z,370.73
2023-01-28T08:50:40.455Z,378.95
2023-01-28T08:53:08.878Z,302.33
2023-01-28T08:55:36.293Z,382.23
2023-01-28T08:58:06.976Z,384.45
2023-01-28T09:00:34.437Z,296.02
2023-01-28T09:03:03.844Z,310.52
2023-01-28T09:05:33.009Z,300.90
2023-01-28T09:08:04.571Z,300.05
2023-01-28T09:10:31.691Z,289.45
2023-01-28T09:12:58.966Z,303.60
2023-01-28T09:15:26.108Z,293.92
2023-01-28T09:17:58.270Z,388.08
2023-01-28T09:20:25.631Z,297.45
2023-01-28T09:22:52.942Z,290.73
2023-01-28T09:25:20.135Z,289.05
2023-01-28T09:27:47.277Z,365.73
2023-01-28T09:30:15.080Z,381.48
2023-01-28T09:32:42.471Z,382.02
2023-01-28T09:35:10.060Z,379.00
2023-01-28T09:37:37.432Z,382.52
2023-01-28T09:40:05.664Z,384.27
2023-01-28T09:42:32.794Z,307.33
2023-01-28T09:44:59.965Z,371.92
2023-01-28T09:47:28.968Z,299.98
2023-01-28T09:49:58.956Z,300.20
2023-01-28T09:52:27.221Z,310.30
2023-01-28T09:55:02.503Z,295.25
2023-01-28T09:57:35.955Z,387.08
2023-01-28T10:00:04.678Z,376.65
2023-01-28T10:02:50.673Z,311.20
2023-01-28T10:05:17.780Z,304.30
2023-01-28T10:07:49.052Z,385.42
2023-01-28T10:10:28.874Z,299.42
2023-01-28T10:12:59.429Z,297.70
2023-01-28T10:15:29.574Z,293.48
2023-01-28T10:18:16.536Z,394.08
2023-01-28T10:20:48.530Z,384.13
2023-01-28T10:23:25.986Z,310.10
2023-01-28T10:25:54.182Z,386.88
2023-01-28T10:28:24.659Z,378.70
2023-01-28T10:30:52.459Z,385.83
2023-01-28T10:33:19.598Z,375.38
2023-01-28T10:35:48.450Z,374.23
2023-01-28T10:38:16.904Z,382.65
2023-01-28T10:40:47.989Z,294.65
2023-01-28T10:43:20.078Z,287.17
2023-01-28T10:45:50.439Z,284.27
2023-01-28T10:48:56.243Z,281.35
2023-01-28T10:51:36.924Z,291.92
2023-01-28T10:54:06.017Z,292.80
2023-01-28T10:56:35.967Z,295.63
2023-01-28T10:59:03.181Z,374.92
2023-01-28T11:01:42.334Z,289.13
2023-01-28T11:04:24.257Z,373.60
2023-01-28T11:07:02.139Z,311.67
2023-01-28T11:09:29.313Z,393.80
2023-01-28T11:11:56.502Z,309.52
2023-01-28T11:14:26.177Z,386.45
2023-01-28T11:16:54.613Z,296.48
2023-01-28T11:21:55.330Z,236.90
2023-01-28T11:24:27.748Z,211.50
2023-01-28T11:26:56.155Z,124.18
2023-01-28T11:29:26.087Z,256.10
2023-01-28T11:31:53.484Z,276.75
2023-01-28T11:34:21.092Z,280.08
2023-01-28T11:37:08.517Z,175.40
2023-01-28T11:39:35.698Z,122.35
2023-01-28T11:42:13.717Z,77.72
2023-01-28T11:44:41.001Z,79.70
2023-01-28T11:47:08.123Z,72.60
2023-01-28T11:49:51.354Z,18.02
2023-01-28T11:52:55.484Z,10.20
2023-01-28T11:55:25.823Z,12.20
2023-01-28T11:57:59.048Z,8.52
2023-01-28T12:03:17.253Z,6.65
2023-01-28T12:05:52.242Z,6.93
2023-01-28T12:08:23.232Z,7.13
2023-01-28T12:10:56.460Z,7.07
2023-01-28T12:13:23.619Z,7.50
2023-01-28T12:16:06.791Z,8.15
2023-01-28T12:18:39.979Z,7.82
2023-01-28T12:21:23.079Z,6.88
2023-01-28T12:24:10.298Z,7.28
2023-01-28T12:26:50.997Z,8.27
2023-01-28T12:29:26.928Z,7.22
2023-01-28T12:31:54.229Z,8.32
2023-01-28T12:34:39.893Z,7.20
2023-01-28T12:37:22.297Z,6.90
2023-01-28T12:39:52.571Z,10.70
2023-01-28T12:42:31.404Z,7.57
2023-01-28T12:45:12.050Z,9.88
2023-01-28T12:47:40.625Z,8.80
2023-01-28T12:50:20.743Z,7.10
2023-01-28T12:52:50.926Z,6.88
2023-01-28T12:55:18.116Z,7.15
2023-01-28T12:57:45.878Z,6.95
2023-01-28T13:00:13.205Z,6.00
2023-01-28T13:02:42.323Z,6.28
2023-01-28T13:05:12.950Z,6.40
2023-01-28T13:07:57.889Z,6.68
2023-01-28T13:10:31.003Z,6.93
2023-01-28T13:15:25.605Z,8.68
2023-01-28T13:17:55.883Z,8.82
2023-01-28T13:20:38.434Z,6.80
2023-01-28T13:23:07.145Z,7.77
2023-01-28T13:25:48.705Z,8.45
2023-01-28T13:28:26.735Z,9.30
2023-01-28T13:31:01.288Z,9.60
2023-01-28T13:33:30.564Z,9.25
2023-01-28T13:35:58.204Z,7.38
2023-01-28T13:38:25.505Z,7.05
2023-01-28T13:41:00.121Z,6.22
2023-01-28T13:43:47.207Z,6.05
2023-01-28T13:46:26.908Z,5.82
2023-01-28T13:48:55.703Z,5.80
2023-01-28T13:51:33.816Z,6.28
2023-01-28T13:54:04.099Z,5.95
2023-01-28T13:56:57.287Z,6.65
2023-01-28T13:59:42.650Z,5.95
2023-01-28T14:02:48.244Z,5.60
2023-01-28T14:05:56.227Z,5.80
2023-01-28T14:08:31.190Z,5.35
2023-01-28T14:11:04.410Z,6.03
2023-01-28T14:13:39.182Z,6.18
2023-01-28T14:16:06.387Z,6.32
2023-01-28T14:18:38.158Z,5.53
2023-01-28T14:21:10.884Z,6.38
2023-01-28T14:23:39.565Z,6.03
2023-01-28T14:26:09.873Z,5.65
2023-01-28T14:28:43.173Z,5.68
2023-01-28T14:31:34.149Z,5.40
2023-01-28T14:34:12.198Z,5.80
2023-01-28T14:36:40.923Z,5.80
2023-01-28T14:39:16.080Z,5.68
2023-01-28T14:41:44.582Z,6.10
2023-01-28T14:44:13.996Z,6.25
2023-01-28T14:46:46.973Z,5.75
2023-01-28T14:51:41.180Z,7.15
2023-01-28T14:54:08.342Z,7.72
2023-01-28T14:56:36.549Z,7.13
2023-01-28T14:59:08.642Z,6.55
2023-01-28T15:01:35.852Z,7.17
2023-01-28T15:04:03.053Z,7.32
2023-01-28T15:06:31.929Z,7.72
2023-01-28T15:09:09.947Z,6.35
2023-01-28T15:11:41.770Z,6.78
2023-01-28T15:14:14.454Z,6.00
2023-01-28T15:16:41.578Z,7.07
2023-01-28T15:19:09.684Z,6.72
2023-01-28T15:21:36.881Z,7.68
2023-01-28T15:24:04.334Z,6.88
2023-01-28T15:26:35.121Z,6.53
2023-01-28T15:29:02.271Z,7.32
2023-01-28T15:31:33.462Z,7.32
2023-01-28T15:34:02.030Z,6.43
2023-01-28T15:36:29.978Z,6.90
2023-01-28T15:38:57.451Z,7.65
2023-01-28T15:41:28.177Z,7.43
2023-01-28T15:43:55.429Z,7.95
2023-01-28T15:46:22.866Z,8.48
2023-01-28T15:48:54.225Z,7.95
2023-01-28T15:51:24.167Z,7.55
2023-01-28T15:53:52.761Z,8.13
2023-01-28T15:56:25.679Z,8.63
2023-01-28T15:58:52.863Z,8.02
2023-01-28T16:01:21.113Z,7.68
2023-01-28T16:04:00.751Z,7.38
2023-01-28T16:06:31.791Z,7.43
2023-01-28T16:09:00.211Z,7.75
2023-01-28T16:11:38.557Z,7.53
2023-01-28T16:14:05.819Z,7.75
2023-01-28T16:16:34.910Z,7.97
2023-01-28T16:19:04.360Z,7.20
2023-01-28T16:21:34.546Z,9.25
2023-01-28T16:24:01.741Z,8.88
2023-01-28T16:26:30.578Z,9.23
2023-01-28T16:28:59.175Z,9.30
2023-01-28T16:31:26.476Z,9.20
2023-01-28T16:33:53.751Z,9.00
2023-01-28T16:36:20.879Z,10.13
2023-01-28T16:38:48.153Z,9.82
2023-01-28T16:41:20.299Z,10.38
2023-01-28T16:43:47.510Z,9.43
2023-01-28T16:46:14.697Z,8.85
2023-01-28T16:48:42.006Z,9.25
2023-01-28T16:51:15.745Z,9.65
2023-01-28T16:53:43.034Z,8.80
2023-01-28T16:56:30.432Z,9.27
2023-01-28T16:59:01.587Z,8.85
2023-01-28T17:01:29.113Z,8.98
2023-01-28T17:03:56.760Z,9.60
2023-01-28T17:06:24.065Z,9.75
2023-01-28T17:08:51.253Z,8.65
2023-01-28T17:11:18.350Z,15.63
2023-01-28T17:13:45.538Z,11.82
2023-01-28T17:16:13.077Z,11.50
2023-01-28T17:18:40.243Z,10.02
2023-01-28T17:21:07.553Z,10.32
2023-01-28T17:23:34.870Z,10.77
2023-01-28T17:26:06.327Z,10.25
2023-01-28T17:28:33.687Z,9.73
2023-01-28T17:31:01.296Z,9.98
2023-01-28T17:33:28.471Z,11.40
2023-01-28T17:35:57.755Z,11.52
2023-01-28T17:38:25.118Z,9.90
2023-01-28T17:40:52.332Z,10.77
2023-01-28T17:43:19.518Z,11.25
2023-01-28T17:45:47.090Z,10.27
2023-01-28T17:48:14.347Z,8.95
2023-01-28T17:50:41.613Z,11.25
2023-01-28T17:53:08.787Z,9.35
2023-01-28T17:55:37.239Z,10.32
2023-01-28T17:58:04.889Z,10.55
2023-01-28T18:00:32.215Z,10.48
2023-01-28T18:02:59.566Z,13.02
2023-01-28T18:05:26.800Z,10.57
2023-01-28T18:07:53.913Z,11.25
2023-01-28T18:10:21.364Z,11.75
2023-01-28T18:12:48.578Z,11.90
2023-01-28T18:15:16.258Z,11.10
2023-01-28T18:17:43.632Z,12.52
2023-01-28T18:20:11.153Z,12.07
2023-01-28T18:22:38.289Z,11.20
2023-01-28T18:25:05.656Z,11.52
2023-01-28T18:27:32.990Z,10.73
2023-01-28T18:30:00.240Z,13.10
2023-01-28T18:32:27.333Z,12.68
2023-01-28T18:34:54.578Z,11.82
2023-01-28T18:37:21.817Z,11.73
2023-01-28T18:39:48.989Z,10.98
2023-01-28T18:42:16.221Z,10.70
2023-01-28T18:44:43.486Z,10.60
2023-01-28T18:47:11.478Z,11.43
2023-01-28T18:49:38.746Z,12.18
2023-01-28T18:52:06.029Z,11.82
2023-01-28T18:54:33.385Z,10.65
2023-01-28T18:57:00.566Z,11.18
2023-01-28T18:59:28.115Z,11.75
2023-01-28T19:01:55.365Z,12.32
2023-01-28T19:04:22.594Z,12.48
2023-01-28T19:06:49.753Z,12.77
2023-01-28T19:09:17.766Z,12.57
2023-01-28T19:11:45.040Z,12.23
2023-01-28T19:14:14.282Z,12.85
2023-01-28T19:16:41.699Z,10.25
2023-01-28T19:19:08.953Z,11.18
2023-01-28T19:21:36.229Z,12.90
2023-01-28T19:24:09.496Z,11.90
2023-01-28T19:26:38.063Z,12.90
2023-01-28T19:29:08.005Z,13.00
2023-01-28T19:34:30.994Z,13.13
2023-01-28T19:36:58.151Z,13.13
2023-01-28T19:39:25.308Z,13.70
2023-01-28T19:41:52.560Z,12.27
2023-01-28T19:44:19.925Z,12.27
2023-01-28T19:46:47.213Z,12.57
2023-01-28T19:49:15.670Z,14.38
2023-01-28T19:51:42.882Z,13.77
2023-01-28T19:54:10.132Z,13.15
2023-01-28T19:56:37.691Z,13.77
2023-01-28T19:59:04.987Z,13.43
2023-01-28T20:01:32.335Z,11.95
2023-01-28T20:04:00.590Z,12.52
2023-01-28T20:06:31.642Z,12.70
2023-01-28T20:09:09.904Z,13.70
2023-01-28T20:11:37.159Z,11.35
2023-01-28T20:14:04.434Z,12.63
2023-01-28T20:16:33.005Z,12.30
2023-01-28T20:19:05.121Z,14.25
2023-01-28T20:21:33.129Z,14.02
2023-01-28T20:24:01.498Z,13.57
2023-01-28T20:26:31.633Z,13.38
2023-01-28T20:29:01.678Z,13.80
2023-01-28T20:31:28.985Z,15.07
2023-01-28T20:33:56.307Z,12.90
2023-01-28T20:36:23.541Z,13.32
2023-01-28T20:38:50.815Z,14.30
2023-01-28T20:41:22.684Z,13.20
2023-01-28T20:43:50.399Z,14.70
2023-01-28T20:46:19.359Z,15.07
2023-01-28T20:48:47.011Z,15.32
2023-01-28T20:51:18.860Z,14.18
2023-01-28T20:53:46.276Z,13.02
2023-01-28T20:56:14.488Z,14.27
2023-01-28T20:58:42.301Z,12.73
2023-01-28T21:01:16.616Z,13.82
2023-01-28T21:03:43.803Z,12.93
2023-01-28T21:06:10.987Z,13.95
2023-01-28T21:08:38.218Z,15.48
2023-01-28T21:11:06.644Z,13.00
2023-01-28T21:13:33.826Z,15.60
2023-01-28T21:16:01.005Z,13.85
2023-01-28T21:18:28.264Z,13.73
2023-01-28T21:20:55.564Z,14.20
2023-01-28T21:23:25.937Z,13.57
2023-01-28T21:25:53.130Z,14.23
2023-01-28T21:28:20.706Z,13.23
2023-01-28T21:30:47.943Z,13.93
2023-01-28T21:33:15.136Z,13.40
2023-01-28T21:35:43.525Z,14.55
2023-01-28T21:38:11.154Z,14.63
2023-01-28T21:40:38.700Z,14.40
2023-01-28T21:43:07.136Z,15.10
2023-01-28T21:45:34.341Z,13.93
2023-01-28T21:48:01.545Z,15.73
2023-01-28T21:50:28.982Z,14.15
2023-01-28T21:52:56.166Z,15.82
2023-01-28T21:55:23.433Z,15.88
2023-01-28T21:58:10.599Z,15.27
2023-01-28T22:00:37.823Z,14.45
2023-01-28T22:03:05.002Z,15.15
2023-01-28T22:05:32.171Z,13.93
2023-01-28T22:07:59.403Z,14.35
2023-01-28T22:10:26.570Z,13.38
2023-01-28T22:12:53.775Z,13.60
2023-01-28T22:15:21.219Z,14.10
2023-01-28T22:17:48.393Z,13.85
2023-01-28T22:20:15.823Z,15.05
2023-01-28T22:22:43.232Z,14.60
2023-01-28T22:25:10.624Z,15.18
2023-01-28T22:27:37.753Z,14.65
2023-01-28T22:30:05.104Z,15.05
2023-01-28T22:32:32.203Z,15.48
2023-01-28T22:35:01.967Z,14.05
2023-01-28T22:37:29.048Z,14.07
2023-01-28T22:39:56.306Z,14.43
2023-01-28T22:42:23.571Z,15.52
2023-01-28T22:44:50.709Z,15.82
2023-01-28T22:47:17.873Z,15.43
2023-01-28T22:49:45.095Z,14.90
2023-01-28T22:52:12.368Z,16.70
2023-01-28T22:54:39.524Z,17.25
2023-01-28T22:57:07.794Z,15.43
2023-01-28T22:59:34.947Z,15.80
2023-01-28T23:02:02.227Z,14.40
2023-01-28T23:04:29.400Z,14.85
2023-01-28T23:06:56.621Z,14.35
2023-01-28T23:09:23.869Z,14.20
2023-01-28T23:11:51.023Z,16.05
2023-01-28T23:14:36.667Z,15.15
2023-01-28T23:17:22.682Z,15.60
2023-01-28T23:20:08.502Z,14.85
2023-01-28T23:22:54.420Z,16.48
2023-01-28T23:25:23.268Z,15.88
2023-01-28T23:27:50.503Z,16.52
2023-01-28T23:30:19.680Z,15.25
2023-01-28T23:32:48.585Z,16.08
2023-01-28T23:35:15.995Z,15.43
2023-01-28T23:37:43.246Z,17.00
2023-01-28T23:40:10.908Z,14.93
2023-01-28T23:42:39.494Z,16.20
2023-01-28T23:45:06.958Z,16.42
2023-01-28T23:47:34.381Z,17.92
2023-01-28T23:50:01.969Z,15.35
2023-01-28T23:52:31.743Z,16.02
2023-01-28T23:54:59.089Z,15.88
2023-01-28T23:57:26.348Z,15.73
2023-01-28T23:59:56.785Z,16.40
